TimeCDT,TemperatureF,Dew PointF,Humidity,Sea Level PressureIn,VisibilityMPH,Wind Direction,Wind SpeedMPH,Gust SpeedMPH,PrecipitationIn,Events,Conditions,WindDirDegrees,DateUTC
12:55 AM,60.1,46.9,62,30.00,10.0,NW,6.9,-,N/A,,Clear,310,2012-09-09 05:55:00
1:55 AM,60.1,45.0,57,30.00,10.0,North,8.1,-,N/A,,Clear,350,2012-09-09 06:55:00
2:55 AM,59.0,44.1,58,30.01,10.0,North,6.9,-,N/A,,Clear,350,2012-09-09 07:55:00
3:55 AM,55.0,44.1,67,30.03,10.0,North,6.9,-,N/A,,Clear,10,2012-09-09 08:55:00
4:55 AM,53.1,44.1,71,30.05,10.0,North,5.8,-,N/A,,Clear,350,2012-09-09 09:55:00
5:55 AM,52.0,44.1,74,30.08,10.0,North,5.8,-,N/A,,Clear,350,2012-09-09 10:55:00
6:55 AM,52.0,45.0,77,30.11,10.0,NNW,6.9,-,N/A,,Clear,340,2012-09-09 11:55:00
7:55 AM,55.9,46.0,69,30.14,10.0,North,9.2,-,N/A,,Clear,360,2012-09-09 12:55:00
8:55 AM,59.0,48.0,67,30.15,10.0,North,10.4,-,N/A,,Clear,10,2012-09-09 13:55:00
9:55 AM,63.0,50.0,63,30.17,10.0,NNE,6.9,-,N/A,,Clear,30,2012-09-09 14:55:00
10:55 AM,66.0,51.1,59,30.18,10.0,North,10.4,-,N/A,,Clear,360,2012-09-09 15:55:00
11:55 AM,68.0,50.0,52,30.18,10.0,North,11.5,18.4,N/A,,Clear,350,2012-09-09 16:55:00
12:55 PM,71.1,50.0,47,30.17,10.0,NNE,6.9,-,N/A,,Partly Cloudy,30,2012-09-09 17:55:00
1:55 PM,72.0,50.0,46,30.17,10.0,NNE,8.1,-,N/A,,Partly Cloudy,30,2012-09-09 18:55:00
2:55 PM,73.0,50.0,44,30.16,10.0,North,8.1,-,N/A,,Clear,10,2012-09-09 19:55:00
3:55 PM,73.9,48.9,41,30.15,9.0,NNE,5.8,-,N/A,,Clear,20,2012-09-09 20:55:00
4:55 PM,73.9,48.0,40,30.14,10.0,ENE,6.9,-,N/A,,Clear,60,2012-09-09 21:55:00
5:55 PM,73.0,48.9,42,30.15,10.0,North,8.1,-,N/A,,Clear,10,2012-09-09 22:55:00
6:55 PM,69.1,50.0,51,30.14,10.0,NE,3.5,-,N/A,,Clear,50,2012-09-09 23:55:00
7:55 PM,60.1,52.0,75,30.15,10.0,Calm,Calm,-,N/A,,Clear,0,2012-09-10 00:55:00
8:55 PM,55.9,51.1,84,30.17,10.0,Calm,Calm,-,N/A,,Clear,0,2012-09-10 01:55:00
9:55 PM,53.1,51.1,93,30.18,10.0,Calm,Calm,-,N/A,,Clear,0,2012-09-10 02:55:00
10:55 PM,52.0,50.0,93,30.19,10.0,Calm,Calm,-,N/A,,Clear,0,2012-09-10 03:55:00
11:55 PM,50.0,48.0,93,30.19,10.0,Calm,Calm,-,N/A,,Clear,0,2012-09-10 04:55:00